»·PEaware :: DAL576 KSEA-KBUR

DAL576 :: KSEA-KBUR

FLIGHT INFORMATION

Flight Status: Arrived
Operator:
Delta Air Lines
More flights by this operator :: More flights under this callsign
Pilot: Anonymous 8274 (8274)
Aircraft: BOEING 737-200
(B732)
More flights by this aircraft type
Origin: KSEA Seattle-Tacoma Intl
United States
Destination: KBUR Bob Hope-Burbank
United States
More flights between these airports :: More routes between these airports
Route: SEA7 SEA J1 BTG J189 LMT J65 RBL J126 ROBIE J6 AVE FERN7
File this flight plan on PilotEdge
Remarks:
Altitude:
(Current/Filed)
31,000ft
Speed:
(Current/Filed)
439kts
Departed: 10-Oct-19 05:41 PM
Arrived: 10-Oct-19 07:55 PM
Distance/Time
Traveled:
815nm/2:14
Distance/Time
To Go:
Arrived

Flight Plot

Page will automatically refresh every two minutes.

Flight plan parsing failed; only flown route is shown


Map Options




Map Legend


Flown Route
Filed Route
Departure Airport
Arrival Airport
Navaid (VOR, NDB)
Fix

Horizontal Profiles

Position Reports

Time Latitude Longitude Heading Altitude Ground
Speed
10-Oct-19 17:09 47.440568 -122.299971 67 478ft 0kts
10-Oct-19 17:10 47.440568 -122.299971 67 478ft 0kts
10-Oct-19 17:11 47.440568 -122.299971 67 478ft 0kts
10-Oct-19 17:12 47.440568 -122.299971 67 478ft 0kts
10-Oct-19 17:13 47.440568 -122.299971 67 478ft 0kts
10-Oct-19 17:14 47.440568 -122.299971 67 478ft 0kts
10-Oct-19 17:15 47.440568 -122.299971 67 478ft 0kts
10-Oct-19 17:16 47.440568 -122.299971 67 478ft 0kts
10-Oct-19 17:17 47.440568 -122.299971 67 478ft 0kts
10-Oct-19 17:18 47.440568 -122.299971 67 478ft 0kts
10-Oct-19 17:19 47.440568 -122.299971 67 478ft 0kts
10-Oct-19 17:20 47.440568 -122.299971 67 478ft 0kts
10-Oct-19 17:21 47.440568 -122.299971 67 478ft 0kts
10-Oct-19 17:22 47.440568 -122.299971 67 478ft 0kts
10-Oct-19 17:23 47.440568 -122.299971 67 478ft 0kts
10-Oct-19 17:24 47.440568 -122.299971 67 478ft 0kts
10-Oct-19 17:25 47.440568 -122.299971 67 478ft 0kts
10-Oct-19 17:26 47.440570 -122.299966 67 478ft 0kts
10-Oct-19 17:27 47.440346 -122.300505 25 478ft 2kts
10-Oct-19 17:28 47.440001 -122.300420 317 478ft 0kts
10-Oct-19 17:29 47.440002 -122.300420 317 478ft 0kts
10-Oct-19 17:30 47.440002 -122.300420 317 478ft 0kts
10-Oct-19 17:31 47.440192 -122.300720 312 478ft 7kts
10-Oct-19 17:32 47.439902 -122.304474 271 478ft 14kts
10-Oct-19 17:33 47.439905 -122.304672 271 478ft 0kts
10-Oct-19 17:34 47.439905 -122.304672 271 478ft 0kts
10-Oct-19 17:35 47.439438 -122.306379 184 478ft 10kts
10-Oct-19 17:36 47.437921 -122.306387 180 478ft 14kts
10-Oct-19 17:37 47.432559 -122.305689 194 478ft 19kts
10-Oct-19 17:38 47.431783 -122.306599 258 478ft 0kts
10-Oct-19 17:39 47.431751 -122.307064 269 478ft 7kts
10-Oct-19 17:40 47.437263 -122.308006 0 478ft 92kts
10-Oct-19 17:41 47.475780 -122.311070 357 1924ft 158kts
10-Oct-19 17:42 47.529213 -122.322696 317 3545ft 235kts
10-Oct-19 17:43 47.543392 -122.425560 275 6069ft 281kts
10-Oct-19 17:44 47.497389 -122.503591 197 9158ft 280kts
10-Oct-19 17:45 47.421520 -122.487774 166 11595ft 298kts
10-Oct-19 17:46 47.334602 -122.450761 165 13067ft 346kts
10-Oct-19 17:47 47.238365 -122.411666 165 14949ft 370kts
10-Oct-19 17:48 47.138653 -122.371084 165 17186ft 374kts
10-Oct-19 17:49 47.036658 -122.364616 187 19299ft 369kts
10-Oct-19 17:50 46.935537 -122.384239 192 21007ft 373kts
10-Oct-19 17:51 46.833282 -122.408951 192 22128ft 390kts
10-Oct-19 17:52 46.725435 -122.435210 192 23378ft 398kts
10-Oct-19 17:53 46.615584 -122.461809 192 24671ft 402kts
10-Oct-19 17:54 46.503515 -122.479718 185 25637ft 413kts
10-Oct-19 17:55 46.387395 -122.488208 185 26459ft 424kts
10-Oct-19 17:56 46.268973 -122.496906 185 27335ft 430kts
10-Oct-19 17:57 46.148821 -122.505636 185 27779ft 445kts
10-Oct-19 17:58 46.023752 -122.514905 185 28165ft 456kts
10-Oct-19 17:59 45.900114 -122.538576 191 29263ft 447kts
10-Oct-19 18:00 45.784980 -122.563143 191 30090ft 443kts
10-Oct-19 18:01 45.663768 -122.568425 168 30821ft 445kts
10-Oct-19 18:02 45.543806 -122.525716 167 31326ft 449kts
10-Oct-19 18:03 45.419964 -122.490656 174 31312ft 462kts
10-Oct-19 18:04 45.290117 -122.465646 174 31311ft 474kts
10-Oct-19 18:05 45.159878 -122.440660 174 31310ft 472kts
10-Oct-19 18:06 45.030616 -122.407008 165 31285ft 473kts
10-Oct-19 18:07 44.904155 -122.355280 165 31262ft 472kts
10-Oct-19 18:08 44.783262 -122.315671 169 31267ft 469kts
10-Oct-19 18:09 44.656208 -122.278810 169 31263ft 467kts
10-Oct-19 18:10 44.529038 -122.242170 169 31265ft 465kts
10-Oct-19 18:12 44.402508 -122.205764 169 31252ft 464kts
10-Oct-19 18:13 44.276312 -122.169418 169 31235ft 463kts
10-Oct-19 18:14 44.150680 -122.133364 169 31248ft 462kts
10-Oct-19 18:15 44.024612 -122.097207 169 31264ft 461kts
10-Oct-19 18:16 43.900004 -122.061438 169 31279ft 461kts
10-Oct-19 18:17 43.783474 -122.027975 169 31287ft 460kts
10-Oct-19 18:18 43.658468 -121.992248 171 31279ft 459kts
10-Oct-19 18:19 43.532174 -121.973912 176 31287ft 457kts
10-Oct-19 18:20 43.405741 -121.977483 185 31287ft 454kts
10-Oct-19 18:21 43.279838 -121.986932 185 31284ft 454kts
10-Oct-19 18:22 43.153599 -121.978502 174 31281ft 457kts
10-Oct-19 18:23 43.027463 -121.956751 174 31271ft 458kts
10-Oct-19 18:24 42.901364 -121.934897 174 31280ft 459kts
10-Oct-19 18:25 42.781142 -121.914112 174 31285ft 459kts
10-Oct-19 18:26 42.654826 -121.892090 174 31280ft 459kts
10-Oct-19 18:27 42.534925 -121.832305 156 31274ft 462kts
10-Oct-19 18:28 42.414784 -121.774572 172 31272ft 460kts
10-Oct-19 18:28 42.308619 -121.764272 174 31278ft 460kts
10-Oct-19 18:30 42.161486 -121.729778 170 31277ft 461kts
10-Oct-19 18:31 42.036591 -121.727427 209 31276ft 448kts
10-Oct-19 18:32 41.922890 -121.786911 188 31279ft 454kts
10-Oct-19 18:32 41.825112 -121.809161 193 31274ft 454kts
10-Oct-19 18:34 41.681844 -121.850579 194 31275ft 453kts
10-Oct-19 18:35 41.558238 -121.885270 193 31274ft 453kts
10-Oct-19 18:35 41.455442 -121.912055 193 31276ft 454kts
10-Oct-19 18:36 41.331369 -121.942704 192 31208ft 456kts
10-Oct-19 18:38 41.185603 -121.978059 192 31178ft 456kts
10-Oct-19 18:38 41.081643 -122.003423 193 31180ft 456kts
10-Oct-19 18:39 40.957437 -122.034617 193 31176ft 455kts
10-Oct-19 18:40 40.843568 -122.063473 192 31176ft 455kts
10-Oct-19 18:41 40.718741 -122.083744 192 31132ft 455kts
10-Oct-19 18:42 40.594752 -122.117296 196 31063ft 454kts
10-Oct-19 18:43 40.471918 -122.152947 194 31057ft 454kts
10-Oct-19 18:44 40.347252 -122.180667 192 31054ft 454kts
10-Oct-19 18:45 40.222839 -122.207504 193 30968ft 455kts
10-Oct-19 18:46 40.097614 -122.236429 193 30899ft 456kts
10-Oct-19 18:47 39.973970 -122.229132 148 30905ft 466kts
10-Oct-19 18:48 39.884718 -122.128391 162 30920ft 460kts
10-Oct-19 18:49 39.761680 -122.091909 167 30945ft 458kts
10-Oct-19 18:50 39.639199 -122.046632 164 30978ft 458kts
10-Oct-19 18:51 39.518074 -121.996375 163 31017ft 458kts
10-Oct-19 18:52 39.397456 -121.943809 163 31011ft 459kts
10-Oct-19 18:53 39.276665 -121.891447 163 31009ft 459kts
10-Oct-19 18:54 39.155766 -121.840479 164 31011ft 459kts
10-Oct-19 18:55 39.033969 -121.790674 164 31012ft 460kts
10-Oct-19 18:56 38.912193 -121.740589 166 31032ft 459kts
10-Oct-19 18:57 38.801446 -121.701795 166 31038ft 459kts
10-Oct-19 18:58 38.702378 -121.662990 163 31035ft 460kts
10-Oct-19 18:59 38.581534 -121.609925 163 31039ft 460kts
10-Oct-19 19:00 38.460173 -121.559115 164 31034ft 460kts
10-Oct-19 19:01 38.338343 -121.528311 196 31035ft 445kts
10-Oct-19 19:02 38.219590 -121.555279 178 31036ft 450kts
10-Oct-19 19:03 38.094845 -121.556602 185 31035ft 448kts
10-Oct-19 19:04 37.970543 -121.563846 185 31035ft 449kts
10-Oct-19 19:05 37.850814 -121.568966 184 31035ft 449kts
10-Oct-19 19:06 37.730570 -121.571652 183 31038ft 449kts
10-Oct-19 19:07 37.605817 -121.572891 183 31036ft 449kts
10-Oct-19 19:08 37.481135 -121.573684 182 31037ft 450kts
10-Oct-19 19:09 37.356574 -121.578654 187 31033ft 447kts
10-Oct-19 19:10 37.233061 -121.594407 186 31045ft 447kts
10-Oct-19 19:11 37.109061 -121.600928 181 31036ft 448kts
10-Oct-19 19:12 36.984709 -121.598021 180 31036ft 447kts
10-Oct-19 19:13 36.863622 -121.598639 183 31036ft 446kts
10-Oct-19 19:14 36.744757 -121.602050 182 31036ft 445kts
10-Oct-19 19:15 36.621102 -121.604515 182 31036ft 444kts
10-Oct-19 19:16 36.520943 -121.529517 116 31038ft 456kts
10-Oct-19 19:17 36.453195 -121.403584 154 31037ft 444kts
10-Oct-19 19:18 36.346277 -121.326827 149 31035ft 446kts
10-Oct-19 19:19 36.242731 -121.241937 147 31036ft 447kts
10-Oct-19 19:20 36.140636 -121.153909 146 31038ft 447kts
10-Oct-19 19:21 36.039530 -121.065067 146 31041ft 447kts
10-Oct-19 19:22 35.959621 -120.951956 110 31045ft 456kts
10-Oct-19 19:23 35.916275 -120.804516 112 31040ft 456kts
10-Oct-19 19:24 35.873822 -120.666986 112 31038ft 457kts
10-Oct-19 19:25 35.826368 -120.521628 115 31036ft 457kts
10-Oct-19 19:26 35.775280 -120.378481 115 31036ft 458kts
10-Oct-19 19:27 35.726137 -120.233816 108 31036ft 460kts
10-Oct-19 19:28 35.688863 -120.082901 109 31036ft 460kts
10-Oct-19 19:29 35.649168 -119.933572 114 31032ft 460kts
10-Oct-19 19:30 35.554765 -119.838354 155 31039ft 445kts
10-Oct-19 19:31 35.445003 -119.768188 155 31040ft 446kts
10-Oct-19 19:32 35.335220 -119.697339 155 30932ft 446kts
10-Oct-19 19:33 35.229362 -119.625334 150 29039ft 429kts
10-Oct-19 19:34 35.131598 -119.543941 146 26950ft 424kts
10-Oct-19 19:35 35.036470 -119.462263 146 24950ft 414kts
10-Oct-19 19:36 34.943328 -119.383431 146 24042ft 405kts
10-Oct-19 19:37 34.861975 -119.314580 147 23479ft 398kts
10-Oct-19 19:38 34.770611 -119.237670 147 21282ft 395kts
10-Oct-19 19:39 34.681021 -119.163445 147 19100ft 378kts
10-Oct-19 19:40 34.596806 -119.092604 141 15206ft 367kts
10-Oct-19 19:41 34.519416 -119.017439 143 11505ft 347kts
10-Oct-19 19:42 34.449081 -118.959964 144 10557ft 285kts
10-Oct-19 19:43 34.382805 -118.907176 145 9223ft 285kts
10-Oct-19 19:44 34.316897 -118.855223 144 7968ft 281kts
10-Oct-19 19:45 34.252517 -118.803792 144 7017ft 266kts
10-Oct-19 19:46 34.221522 -118.725980 106 5660ft 271kts
10-Oct-19 19:47 34.199684 -118.638386 105 4293ft 271kts
10-Oct-19 19:48 34.178285 -118.556457 105 3883ft 234kts
10-Oct-19 19:49 34.160356 -118.491256 105 3491ft 176kts
10-Oct-19 19:50 34.157085 -118.440478 86 2606ft 146kts
10-Oct-19 19:51 34.156878 -118.390444 74 2215ft 146kts
10-Oct-19 19:52 34.174380 -118.351618 10 1309ft 135kts
10-Oct-19 19:53 34.207540 -118.359138 346 739ft 67kts
10-Oct-19 19:54 34.209807 -118.358620 112 739ft 0kts
10-Oct-19 19:55 34.208732 -118.358124 168 739ft 12kts
10-Oct-19 19:56 34.203927 -118.356791 166 739ft 21kts
10-Oct-19 19:57 34.197837 -118.354999 138 739ft 19kts
10-Oct-19 19:58 34.196956 -118.350619 175 739ft 4kts
10-Oct-19 19:59 34.196789 -118.350623 181 739ft 0kts

Navigation Log

Ident Type
Flight plan parsing failed, navigation log unavailable